Terminal Aerodrome Forecast
Issued by NWS Binghamton, NY

Home | Current Version | Previous Version | Text Only | Print | Product List | Glossary On
Versions: 1 2 3 4 5 6 7 8 9 10 11 12 13 14 15 16 17 18 19 20 21
000
FTUS41 KBGM 221700
TAFBGM
TAF
KBGM 221740Z 2218/2318 15012G20KT P6SM OVC012
     FM222000 15012G20KT P6SM SCT020 SCT150
     FM230000 14010KT P6SM BKN025 OVC040
      TEMPO 2302/2305 3SM -FZDZSN OVC015
     FM230500 13010KT 5SM -RA SCT008 OVC012
     FM231400 14013KT P6SM -SHRA OVC012=

USA.gov is the U.S. government's official web portal to all federal, state and local government web resources and services.